Weather at United Bank Plaza Heliport

Public forecast

Using degrees Fahrenheit for public forecast. Weather courtesy of forecast.io.

Closest aviation weather report (METAR) to United Bank Plaza Heliport

Closest report is Phoenix Sky Harbor International Airport, 4.6 nm (8.5 km) SE.

2024/07/22 21:53 (retrieved 46 minutes ago)

KPHX 222153Z 30005KT 10SM FEW090 FEW250 42/14 A2975 RMK AO2 CB DSNT N-NE T04220139

Closest aviation forecast (TAF) to United Bank Plaza Heliport

Closest forecast is Phoenix Sky Harbor International Airport, 4.6 nm (8.5 km) SE.

2024/07/22 21:58 Ammendment (retrieved 41 minutes ago)

TAF AMD KPHX 222056Z 2221/2324 VRB05KT P6SM FEW150 FEW250 FM222300 26007KT P6SM FEW150 SCT250 FM230300 35014G22KT P6SM SCT100 BKN150 FM230500 23006KT P6SM SCT120 BKN200 FM230700 12007KT P6SM FEW120 SCT200 FM232000 25007KT P6SM FEW120 FEW250